Annapolis, Maryland
Current Conditions -  °F | °C
As of 9:54 AM on Saturday 25 Oct 2014 (Local Time) from KNAK Reporting Station
Clear Clear  
Wind Chill: 58°   Ceiling: Unl
Heat Index: 58°   Visibility: 10mi
Dew Point: 41°   Wind: 6mph
Humidity: 53%   Direction: 280°W
Pressure: 29.95"   Gusts: NA
Location:  38.98°N, 76.49°W
Report Text: KNAK 251354Z AUTO 28005KT 10SM CLR 14/05 A2995 RMK AO2 SLP145 T01440050
Loading
Personal Weather Stations






























Interactive Weather Map New forecast layout! Learn more

10-Day Weather Forecast

Advertisements
Track Severe Weather on mobile